This is the latest recevied weather packets stored in our database for station/object DF7ER-12. If no packets are shown the sender has not sent any weather packets the latest 10 day(s).
| Time | Temp. | Humidity | Pressure | Rain* | Wind** | Luminosity | Snow |
|---|---|---|---|---|---|---|---|
| 1788168981 | 27.22° C | 69% | 999.5 hPa | - | - | - | - |
| 1788168681 | 26.67° C | 72% | 999.5 hPa | - | - | - | - |
| 1788168381 | 26.11° C | 72% | 999.5 hPa | - | - | - | - |
| 1788168081 | 26.67° C | 70% | 999.5 hPa | - | - | - | - |
| 1788167790 | 26.11° C | 73% | 999.5 hPa | - | - | - | - |
| 1788167481 | 25° C | 75% | 999.5 hPa | - | - | - | - |
| 1788167181 | 25° C | 75% | 999.5 hPa | - | - | - | - |
| 1788166881 | 25.56° C | 73% | 999.4 hPa | - | - | - | - |
| 1788166581 | 25.56° C | 73% | 999.4 hPa | - | - | - | - |
| 1788166281 | 25° C | 76% | 999.5 hPa | - | - | - | - |
| 1788165981 | 25° C | 75% | 999.5 hPa | - | - | - | - |
| 1788165681 | 25.56° C | 74% | 999.5 hPa | - | - | - | - |
| 1788165381 | 25° C | 75% | 999.5 hPa | - | - | - | - |
| 1788165081 | 25° C | 75% | 999.4 hPa | - | - | - | - |
| 1788164781 | 25.56° C | 74% | 999.5 hPa | - | - | - | - |
| 1788164481 | 25.56° C | 74% | 999.6 hPa | - | - | - | - |
| 1788164181 | 24.44° C | 76% | 999.5 hPa | - | - | - | - |
| 1788163881 | 24.44° C | 75% | 999.6 hPa | - | - | - | - |
| 1788163581 | 24.44° C | 77% | 999.5 hPa | - | - | - | - |
| 1788163281 | 23.89° C | 78% | 999.6 hPa | - | - | - | - |
| 1788162997 | 24.44° C | 76% | 999.6 hPa | - | - | - | - |
| 1788162681 | 23.33° C | 79% | 999.6 hPa | - | - | - | - |
| 1788162381 | 23.89° C | 76% | 999.6 hPa | - | - | - | - |
| 1788162081 | 23.89° C | 77% | 999.6 hPa | - | - | - | - |
| 1788161781 | 24.44° C | 77% | 999.6 hPa | - | - | - | - |
* Rain since midnight (hover to see other rain measurements)
** Current wind speed in m/s (hover to see current wind gust speed)